sensor_id;sensor_type;location;lat;lon;timestamp;pressure;altitude;pressure_sealevel;temperature
68911;BMP180;55953;51.650;-0.522;2024-03-08T00:00:16;100609.40;;;5.18
68911;BMP180;55953;51.650;-0.522;2024-03-08T00:03:06;100608.20;;;5.10
68911;BMP180;55953;51.650;-0.522;2024-03-08T00:05:35;100612.80;;;5.10
68911;BMP180;55953;51.650;-0.522;2024-03-08T00:08:04;100609.20;;;5.18
68911;BMP180;55953;51.650;-0.522;2024-03-08T00:10:32;100598.80;;;5.12
68911;BMP180;55953;51.650;-0.522;2024-03-08T00:13:01;100600.40;;;5.20
68911;BMP180;55953;51.650;-0.522;2024-03-08T00:15:31;100600.20;;;5.20
68911;BMP180;55953;51.650;-0.522;2024-03-08T00:18:00;100592.60;;;5.20
68911;BMP180;55953;51.650;-0.522;2024-03-08T00:20:28;100586.60;;;5.20
68911;BMP180;55953;51.650;-0.522;2024-03-08T00:22:56;100579.40;;;5.20
68911;BMP180;55953;51.650;-0.522;2024-03-08T00:25:25;100576.60;;;5.20
68911;BMP180;55953;51.650;-0.522;2024-03-08T00:27:53;100575.20;;;5.20
68911;BMP180;55953;51.650;-0.522;2024-03-08T00:30:24;100568.80;;;5.22
68911;BMP180;55953;51.650;-0.522;2024-03-08T00:32:53;100573.20;;;5.20
68911;BMP180;55953;51.650;-0.522;2024-03-08T00:35:21;100571.40;;;5.20
68911;BMP180;55953;51.650;-0.522;2024-03-08T00:37:50;100564.60;;;5.20
68911;BMP180;55953;51.650;-0.522;2024-03-08T00:40:18;100563.80;;;5.20
68911;BMP180;55953;51.650;-0.522;2024-03-08T00:42:46;100562.40;;;5.20
68911;BMP180;55953;51.650;-0.522;2024-03-08T00:45:14;100555.00;;;5.12
68911;BMP180;55953;51.650;-0.522;2024-03-08T00:47:42;100554.00;;;5.10
68911;BMP180;55953;51.650;-0.522;2024-03-08T00:50:12;100553.40;;;5.16
68911;BMP180;55953;51.650;-0.522;2024-03-08T00:52:41;100546.80;;;5.20
68911;BMP180;55953;51.650;-0.522;2024-03-08T00:55:09;100544.80;;;5.16
68911;BMP180;55953;51.650;-0.522;2024-03-08T00:57:38;100539.00;;;5.12
68911;BMP180;55953;51.650;-0.522;2024-03-08T01:00:07;100534.20;;;5.18
68911;BMP180;55953;51.650;-0.522;2024-03-08T01:02:40;100532.60;;;5.20
68911;BMP180;55953;51.650;-0.522;2024-03-08T01:05:08;100531.80;;;5.20
68911;BMP180;55953;51.650;-0.522;2024-03-08T01:07:36;100525.40;;;5.20
68911;BMP180;55953;51.650;-0.522;2024-03-08T01:10:05;100523.00;;;5.20
68911;BMP180;55953;51.650;-0.522;2024-03-08T01:12:39;100522.40;;;5.20
68911;BMP180;55953;51.650;-0.522;2024-03-08T01:15:09;100512.20;;;5.20
68911;BMP180;55953;51.650;-0.522;2024-03-08T01:17:38;100512.40;;;5.20
68911;BMP180;55953;51.650;-0.522;2024-03-08T01:20:07;100511.20;;;5.22
68911;BMP180;55953;51.650;-0.522;2024-03-08T01:22:40;100505.60;;;5.20
68911;BMP180;55953;51.650;-0.522;2024-03-08T01:25:08;100505.20;;;5.20
68911;BMP180;55953;51.650;-0.522;2024-03-08T01:27:36;100504.40;;;5.22
68911;BMP180;55953;51.650;-0.522;2024-03-08T01:30:05;100499.60;;;5.26
68911;BMP180;55953;51.650;-0.522;2024-03-08T01:32:34;100496.00;;;5.30
68911;BMP180;55953;51.650;-0.522;2024-03-08T01:35:02;100491.20;;;5.28
68911;BMP180;55953;51.650;-0.522;2024-03-08T01:37:31;100488.40;;;5.26
68911;BMP180;55953;51.650;-0.522;2024-03-08T01:39:58;100480.00;;;5.30
68911;BMP180;55953;51.650;-0.522;2024-03-08T01:42:26;100481.40;;;5.30
68911;BMP180;55953;51.650;-0.522;2024-03-08T01:44:55;100480.80;;;5.30
68911;BMP180;55953;51.650;-0.522;2024-03-08T01:47:23;100478.00;;;5.40
68911;BMP180;55953;51.650;-0.522;2024-03-08T01:49:52;100471.40;;;5.40
68911;BMP180;55953;51.650;-0.522;2024-03-08T01:52:20;100466.00;;;5.40
68911;BMP180;55953;51.650;-0.522;2024-03-08T01:54:50;100460.20;;;5.40
68911;BMP180;55953;51.650;-0.522;2024-03-08T01:57:19;100458.40;;;5.42
68911;BMP180;55953;51.650;-0.522;2024-03-08T01:59:47;100456.00;;;5.40
68911;BMP180;55953;51.650;-0.522;2024-03-08T02:02:18;100446.00;;;5.40
68911;BMP180;55953;51.650;-0.522;2024-03-08T02:04:48;100446.80;;;5.40
68911;BMP180;55953;51.650;-0.522;2024-03-08T02:07:16;100446.60;;;5.40
68911;BMP180;55953;51.650;-0.522;2024-03-08T02:09:44;100440.60;;;5.40
68911;BMP180;55953;51.650;-0.522;2024-03-08T02:12:13;100437.80;;;5.40
68911;BMP180;55953;51.650;-0.522;2024-03-08T02:14:41;100434.60;;;5.40
68911;BMP180;55953;51.650;-0.522;2024-03-08T02:17:11;100428.60;;;5.40
68911;BMP180;55953;51.650;-0.522;2024-03-08T02:19:39;100432.40;;;5.40
68911;BMP180;55953;51.650;-0.522;2024-03-08T02:22:07;100423.80;;;5.40
68911;BMP180;55953;51.650;-0.522;2024-03-08T02:24:35;100414.00;;;5.40
68911;BMP180;55953;51.650;-0.522;2024-03-08T02:27:04;100411.40;;;5.40
68911;BMP180;55953;51.650;-0.522;2024-03-08T02:29:34;100406.20;;;5.44
68911;BMP180;55953;51.650;-0.522;2024-03-08T02:32:02;100401.40;;;5.50
68911;BMP180;55953;51.650;-0.522;2024-03-08T02:34:31;100403.20;;;5.50
68911;BMP180;55953;51.650;-0.522;2024-03-08T02:36:59;100391.60;;;5.50
68911;BMP180;55953;51.650;-0.522;2024-03-08T02:39:27;100390.20;;;5.50
68911;BMP180;55953;51.650;-0.522;2024-03-08T02:41:55;100381.20;;;5.46
68911;BMP180;55953;51.650;-0.522;2024-03-08T02:44:23;100378.60;;;5.46
68911;BMP180;55953;51.650;-0.522;2024-03-08T02:46:51;100377.00;;;5.44
68911;BMP180;55953;51.650;-0.522;2024-03-08T02:49:23;100380.60;;;5.42
68911;BMP180;55953;51.650;-0.522;2024-03-08T02:51:51;100373.80;;;5.40
68911;BMP180;55953;51.650;-0.522;2024-03-08T02:54:19;100374.00;;;5.42
68911;BMP180;55953;51.650;-0.522;2024-03-08T02:56:48;100369.00;;;5.40
68911;BMP180;55953;51.650;-0.522;2024-03-08T02:59:18;100362.40;;;5.48
68911;BMP180;55953;51.650;-0.522;2024-03-08T03:01:46;100364.80;;;5.42
68911;BMP180;55953;51.650;-0.522;2024-03-08T03:04:14;100358.40;;;5.44
68911;BMP180;55953;51.650;-0.522;2024-03-08T03:06:42;100355.20;;;5.40
68911;BMP180;55953;51.650;-0.522;2024-03-08T03:09:10;100348.00;;;5.40
68911;BMP180;55953;51.650;-0.522;2024-03-08T03:11:38;100344.80;;;5.40
68911;BMP180;55953;51.650;-0.522;2024-03-08T03:14:06;100343.80;;;5.40
68911;BMP180;55953;51.650;-0.522;2024-03-08T03:16:36;100338.60;;;5.40
68911;BMP180;55953;51.650;-0.522;2024-03-08T03:19:04;100337.20;;;5.40
68911;BMP180;55953;51.650;-0.522;2024-03-08T03:21:33;100331.80;;;5.40
68911;BMP180;55953;51.650;-0.522;2024-03-08T03:24:04;100330.20;;;5.40
68911;BMP180;55953;51.650;-0.522;2024-03-08T03:26:38;100321.80;;;5.40
68911;BMP180;55953;51.650;-0.522;2024-03-08T03:29:07;100326.60;;;5.40
68911;BMP180;55953;51.650;-0.522;2024-03-08T03:31:36;100315.80;;;5.40
68911;BMP180;55953;51.650;-0.522;2024-03-08T03:34:04;100315.80;;;5.40
68911;BMP180;55953;51.650;-0.522;2024-03-08T03:36:36;100318.20;;;5.40
68911;BMP180;55953;51.650;-0.522;2024-03-08T03:39:06;100313.20;;;5.40
68911;BMP180;55953;51.650;-0.522;2024-03-08T03:41:48;100310.20;;;5.40
68911;BMP180;55953;51.650;-0.522;2024-03-08T03:44:20;100311.80;;;5.40
68911;BMP180;55953;51.650;-0.522;2024-03-08T03:46:47;100310.80;;;5.36
68911;BMP180;55953;51.650;-0.522;2024-03-08T03:49:16;100306.20;;;5.32
68911;BMP180;55953;51.650;-0.522;2024-03-08T03:51:44;100298.60;;;5.34
68911;BMP180;55953;51.650;-0.522;2024-03-08T03:54:13;100294.00;;;5.30
68911;BMP180;55953;51.650;-0.522;2024-03-08T03:56:41;100292.00;;;5.30
68911;BMP180;55953;51.650;-0.522;2024-03-08T03:59:09;100294.20;;;5.30
68911;BMP180;55953;51.650;-0.522;2024-03-08T04:01:42;100293.00;;;5.30
68911;BMP180;55953;51.650;-0.522;2024-03-08T04:04:11;100294.00;;;5.20
68911;BMP180;55953;51.650;-0.522;2024-03-08T04:06:40;100290.60;;;5.20
68911;BMP180;55953;51.650;-0.522;2024-03-08T04:09:08;100284.40;;;5.20
68911;BMP180;55953;51.650;-0.522;2024-03-08T04:11:36;100279.20;;;5.20
68911;BMP180;55953;51.650;-0.522;2024-03-08T04:14:04;100281.20;;;5.20
68911;BMP180;55953;51.650;-0.522;2024-03-08T04:16:32;100279.20;;;5.20
68911;BMP180;55953;51.650;-0.522;2024-03-08T04:19:00;100276.20;;;5.12
68911;BMP180;55953;51.650;-0.522;2024-03-08T04:21:32;100274.20;;;5.10
68911;BMP180;55953;51.650;-0.522;2024-03-08T04:23:59;100280.60;;;5.10
68911;BMP180;55953;51.650;-0.522;2024-03-08T04:26:27;100273.80;;;5.10
68911;BMP180;55953;51.650;-0.522;2024-03-08T04:28:55;100270.80;;;5.02
68911;BMP180;55953;51.650;-0.522;2024-03-08T04:31:23;100266.20;;;5.00
68911;BMP180;55953;51.650;-0.522;2024-03-08T04:33:51;100267.80;;;5.00
68911;BMP180;55953;51.650;-0.522;2024-03-08T04:36:20;100270.20;;;5.00
68911;BMP180;55953;51.650;-0.522;2024-03-08T04:38:48;100269.80;;;5.00
68911;BMP180;55953;51.650;-0.522;2024-03-08T04:41:17;100265.80;;;5.00
68911;BMP180;55953;51.650;-0.522;2024-03-08T04:43:46;100269.00;;;5.00
68911;BMP180;55953;51.650;-0.522;2024-03-08T04:46:14;100266.60;;;4.90
68911;BMP180;55953;51.650;-0.522;2024-03-08T04:48:42;100263.80;;;4.90
68911;BMP180;55953;51.650;-0.522;2024-03-08T04:51:11;100269.40;;;4.90
68911;BMP180;55953;51.650;-0.522;2024-03-08T04:53:39;100263.20;;;4.90
68911;BMP180;55953;51.650;-0.522;2024-03-08T04:56:07;100263.00;;;4.90
68911;BMP180;55953;51.650;-0.522;2024-03-08T04:58:36;100260.40;;;4.90
68911;BMP180;55953;51.650;-0.522;2024-03-08T05:01:04;100259.20;;;4.90
68911;BMP180;55953;51.650;-0.522;2024-03-08T05:03:32;100252.40;;;4.90
68911;BMP180;55953;51.650;-0.522;2024-03-08T05:06:00;100250.20;;;4.90
68911;BMP180;55953;51.650;-0.522;2024-03-08T05:08:28;100245.00;;;4.90
68911;BMP180;55953;51.650;-0.522;2024-03-08T05:10:56;100243.60;;;4.90
68911;BMP180;55953;51.650;-0.522;2024-03-08T05:13:24;100244.20;;;4.90
68911;BMP180;55953;51.650;-0.522;2024-03-08T05:15:52;100237.20;;;4.92
68911;BMP180;55953;51.650;-0.522;2024-03-08T05:18:20;100236.60;;;5.00
68911;BMP180;55953;51.650;-0.522;2024-03-08T05:20:50;100236.00;;;5.00
68911;BMP180;55953;51.650;-0.522;2024-03-08T05:23:18;100225.60;;;5.00
68911;BMP180;55953;51.650;-0.522;2024-03-08T05:25:47;100227.00;;;5.00
68911;BMP180;55953;51.650;-0.522;2024-03-08T05:28:15;100217.40;;;5.00
68911;BMP180;55953;51.650;-0.522;2024-03-08T05:30:42;100209.60;;;5.00
68911;BMP180;55953;51.650;-0.522;2024-03-08T05:33:10;100208.60;;;5.00
68911;BMP180;55953;51.650;-0.522;2024-03-08T05:35:39;100204.40;;;5.00
68911;BMP180;55953;51.650;-0.522;2024-03-08T05:38:07;100203.40;;;4.98
68911;BMP180;55953;51.650;-0.522;2024-03-08T05:40:35;100198.60;;;4.98
68911;BMP180;55953;51.650;-0.522;2024-03-08T05:43:03;100195.80;;;4.90
68911;BMP180;55953;51.650;-0.522;2024-03-08T05:45:31;100188.40;;;4.90
68911;BMP180;55953;51.650;-0.522;2024-03-08T05:47:59;100191.40;;;5.00
68911;BMP180;55953;51.650;-0.522;2024-03-08T05:50:27;100196.80;;;5.00
68911;BMP180;55953;51.650;-0.522;2024-03-08T05:52:55;100196.60;;;5.10
68911;BMP180;55953;51.650;-0.522;2024-03-08T05:55:23;100197.40;;;5.20
68911;BMP180;55953;51.650;-0.522;2024-03-08T05:57:52;100193.40;;;5.24
68911;BMP180;55953;51.650;-0.522;2024-03-08T06:00:21;100190.60;;;5.30
68911;BMP180;55953;51.650;-0.522;2024-03-08T06:02:50;100191.20;;;5.40
68911;BMP180;55953;51.650;-0.522;2024-03-08T06:05:20;100184.80;;;5.48
68911;BMP180;55953;51.650;-0.522;2024-03-08T06:07:47;100179.40;;;5.52
68911;BMP180;55953;51.650;-0.522;2024-03-08T06:10:15;100176.60;;;5.60
68911;BMP180;55953;51.650;-0.522;2024-03-08T06:12:45;100171.40;;;5.62
68911;BMP180;55953;51.650;-0.522;2024-03-08T06:15:13;100163.80;;;5.70
68911;BMP180;55953;51.650;-0.522;2024-03-08T06:17:44;100156.60;;;5.70
68911;BMP180;55953;51.650;-0.522;2024-03-08T06:20:12;100155.20;;;5.70
68911;BMP180;55953;51.650;-0.522;2024-03-08T06:22:42;100149.00;;;5.70
68911;BMP180;55953;51.650;-0.522;2024-03-08T06:25:11;100148.00;;;5.74
68911;BMP180;55953;51.650;-0.522;2024-03-08T06:27:43;100149.60;;;5.80
68911;BMP180;55953;51.650;-0.522;2024-03-08T06:30:12;100154.20;;;5.80
68911;BMP180;55953;51.650;-0.522;2024-03-08T06:32:40;100154.80;;;5.90
68911;BMP180;55953;51.650;-0.522;2024-03-08T06:35:11;100156.20;;;5.90
68911;BMP180;55953;51.650;-0.522;2024-03-08T06:37:39;100150.40;;;6.00
68911;BMP180;55953;51.650;-0.522;2024-03-08T06:40:07;100145.80;;;6.00
68911;BMP180;55953;51.650;-0.522;2024-03-08T06:42:37;100141.80;;;6.00
68911;BMP180;55953;51.650;-0.522;2024-03-08T06:45:06;100133.80;;;6.00
68911;BMP180;55953;51.650;-0.522;2024-03-08T06:47:36;100135.80;;;6.00
68911;BMP180;55953;51.650;-0.522;2024-03-08T06:50:05;100133.40;;;6.04
68911;BMP180;55953;51.650;-0.522;2024-03-08T06:52:33;100137.20;;;6.10
68911;BMP180;55953;51.650;-0.522;2024-03-08T06:55:02;100134.60;;;6.10
68911;BMP180;55953;51.650;-0.522;2024-03-08T06:57:33;100129.80;;;6.10
68911;BMP180;55953;51.650;-0.522;2024-03-08T07:00:01;100130.00;;;6.18
68911;BMP180;55953;51.650;-0.522;2024-03-08T07:02:29;100126.40;;;6.18
68911;BMP180;55953;51.650;-0.522;2024-03-08T07:04:57;100130.00;;;6.10
68911;BMP180;55953;51.650;-0.522;2024-03-08T07:07:26;100130.40;;;6.10
68911;BMP180;55953;51.650;-0.522;2024-03-08T07:09:54;100132.60;;;6.10
68911;BMP180;55953;51.650;-0.522;2024-03-08T07:12:24;100132.20;;;6.08
68911;BMP180;55953;51.650;-0.522;2024-03-08T07:14:54;100129.40;;;6.00
68911;BMP180;55953;51.650;-0.522;2024-03-08T07:17:22;100133.80;;;6.04
68911;BMP180;55953;51.650;-0.522;2024-03-08T07:19:50;100133.20;;;6.06
68911;BMP180;55953;51.650;-0.522;2024-03-08T07:22:18;100135.00;;;6.10
68911;BMP180;55953;51.650;-0.522;2024-03-08T07:24:46;100128.80;;;6.10
68911;BMP180;55953;51.650;-0.522;2024-03-08T07:27:38;100125.80;;;6.14
68911;BMP180;55953;51.650;-0.522;2024-03-08T07:30:07;100133.20;;;6.20
68911;BMP180;55953;51.650;-0.522;2024-03-08T07:32:37;100131.60;;;6.20
68911;BMP180;55953;51.650;-0.522;2024-03-08T07:35:06;100129.00;;;6.30
68911;BMP180;55953;51.650;-0.522;2024-03-08T07:37:34;100136.80;;;6.30
68911;BMP180;55953;51.650;-0.522;2024-03-08T07:40:02;100131.20;;;6.40
68911;BMP180;55953;51.650;-0.522;2024-03-08T07:42:30;100128.00;;;6.40
68911;BMP180;55953;51.650;-0.522;2024-03-08T07:44:58;100128.20;;;6.50
68911;BMP180;55953;51.650;-0.522;2024-03-08T07:47:27;100120.00;;;6.50
68911;BMP180;55953;51.650;-0.522;2024-03-08T07:49:55;100121.40;;;6.60
68911;BMP180;55953;51.650;-0.522;2024-03-08T07:52:25;100116.20;;;6.70
68911;BMP180;55953;51.650;-0.522;2024-03-08T07:54:53;100110.40;;;6.70
68911;BMP180;55953;51.650;-0.522;2024-03-08T07:57:22;100104.80;;;6.80
68911;BMP180;55953;51.650;-0.522;2024-03-08T07:59:50;100106.80;;;6.80
68911;BMP180;55953;51.650;-0.522;2024-03-08T08:02:18;100107.40;;;6.80
68911;BMP180;55953;51.650;-0.522;2024-03-08T08:04:46;100102.60;;;6.90
68911;BMP180;55953;51.650;-0.522;2024-03-08T08:07:14;100104.80;;;6.96
68911;BMP180;55953;51.650;-0.522;2024-03-08T08:09:43;100107.00;;;7.00
68911;BMP180;55953;51.650;-0.522;2024-03-08T08:12:10;100106.00;;;7.08
68911;BMP180;55953;51.650;-0.522;2024-03-08T08:14:39;100109.20;;;7.10
68911;BMP180;55953;51.650;-0.522;2024-03-08T08:17:09;100101.00;;;7.10
68911;BMP180;55953;51.650;-0.522;2024-03-08T08:19:37;100106.60;;;7.20
68911;BMP180;55953;51.650;-0.522;2024-03-08T08:22:06;100109.40;;;7.30
68911;BMP180;55953;51.650;-0.522;2024-03-08T08:24:37;100104.00;;;7.30
68911;BMP180;55953;51.650;-0.522;2024-03-08T08:27:04;100100.40;;;7.30
68911;BMP180;55953;51.650;-0.522;2024-03-08T08:29:33;100095.40;;;7.40
68911;BMP180;55953;51.650;-0.522;2024-03-08T08:32:00;100092.00;;;7.40
68911;BMP180;55953;51.650;-0.522;2024-03-08T08:34:30;100089.40;;;7.50
68911;BMP180;55953;51.650;-0.522;2024-03-08T08:36:59;100083.60;;;7.56
68911;BMP180;55953;51.650;-0.522;2024-03-08T08:39:27;100084.40;;;7.58
68911;BMP180;55953;51.650;-0.522;2024-03-08T08:41:55;100078.20;;;7.60
68911;BMP180;55953;51.650;-0.522;2024-03-08T08:44:24;100076.80;;;7.60
68911;BMP180;55953;51.650;-0.522;2024-03-08T08:46:53;100075.80;;;7.60
68911;BMP180;55953;51.650;-0.522;2024-03-08T08:49:29;100074.00;;;7.60
68911;BMP180;55953;51.650;-0.522;2024-03-08T08:51:58;100074.00;;;7.60
68911;BMP180;55953;51.650;-0.522;2024-03-08T08:54:36;100070.40;;;7.70
68911;BMP180;55953;51.650;-0.522;2024-03-08T08:57:04;100065.20;;;7.70
68911;BMP180;55953;51.650;-0.522;2024-03-08T08:59:35;100069.20;;;7.70
68911;BMP180;55953;51.650;-0.522;2024-03-08T09:02:09;100062.00;;;7.80
68911;BMP180;55953;51.650;-0.522;2024-03-08T09:04:42;100051.00;;;7.80
68911;BMP180;55953;51.650;-0.522;2024-03-08T09:07:11;100049.20;;;7.90
68911;BMP180;55953;51.650;-0.522;2024-03-08T09:09:42;100043.60;;;7.90
68911;BMP180;55953;51.650;-0.522;2024-03-08T09:12:11;100044.20;;;8.00
68911;BMP180;55953;51.650;-0.522;2024-03-08T09:14:41;100041.80;;;8.00
68911;BMP180;55953;51.650;-0.522;2024-03-08T09:17:09;100035.80;;;8.10
68911;BMP180;55953;51.650;-0.522;2024-03-08T09:19:37;100031.80;;;8.20
68911;BMP180;55953;51.650;-0.522;2024-03-08T09:22:05;100022.80;;;8.30
68911;BMP180;55953;51.650;-0.522;2024-03-08T09:24:33;100025.00;;;8.32
68911;BMP180;55953;51.650;-0.522;2024-03-08T09:27:01;100020.40;;;8.40
68911;BMP180;55953;51.650;-0.522;2024-03-08T09:29:29;100017.20;;;8.50
68911;BMP180;55953;51.650;-0.522;2024-03-08T09:31:57;100005.80;;;8.60
68911;BMP180;55953;51.650;-0.522;2024-03-08T09:34:25;100002.40;;;8.78
68911;BMP180;55953;51.650;-0.522;2024-03-08T09:37:04;100002.20;;;8.90
68911;BMP180;55953;51.650;-0.522;2024-03-08T09:39:32;99999.00;;;9.00
68911;BMP180;55953;51.650;-0.522;2024-03-08T09:42:02;99990.60;;;9.00
68911;BMP180;55953;51.650;-0.522;2024-03-08T09:44:30;99991.20;;;9.00
68911;BMP180;55953;51.650;-0.522;2024-03-08T09:46:59;99985.40;;;9.00
68911;BMP180;55953;51.650;-0.522;2024-03-08T09:49:27;99979.20;;;9.08
68911;BMP180;55953;51.650;-0.522;2024-03-08T09:51:56;99976.60;;;9.10
68911;BMP180;55953;51.650;-0.522;2024-03-08T09:54:25;99971.80;;;9.10
68911;BMP180;55953;51.650;-0.522;2024-03-08T09:56:54;99966.60;;;9.10
68911;BMP180;55953;51.650;-0.522;2024-03-08T09:59:22;99960.20;;;9.20
68911;BMP180;55953;51.650;-0.522;2024-03-08T10:01:51;99958.80;;;9.30
68911;BMP180;55953;51.650;-0.522;2024-03-08T10:04:20;99955.60;;;9.30
68911;BMP180;55953;51.650;-0.522;2024-03-08T10:06:48;99949.00;;;9.32
68911;BMP180;55953;51.650;-0.522;2024-03-08T10:09:16;99942.80;;;9.34
68911;BMP180;55953;51.650;-0.522;2024-03-08T10:11:45;99944.40;;;9.40
68911;BMP180;55953;51.650;-0.522;2024-03-08T10:14:13;99933.60;;;9.50
68911;BMP180;55953;51.650;-0.522;2024-03-08T10:16:44;99929.00;;;9.58
68911;BMP180;55953;51.650;-0.522;2024-03-08T10:19:14;99924.20;;;9.60
68911;BMP180;55953;51.650;-0.522;2024-03-08T10:21:51;99918.60;;;9.70
68911;BMP180;55953;51.650;-0.522;2024-03-08T10:24:24;99919.60;;;9.90
68911;BMP180;55953;51.650;-0.522;2024-03-08T10:27:01;99912.20;;;10.00
68911;BMP180;55953;51.650;-0.522;2024-03-08T10:29:33;99909.80;;;10.00
68911;BMP180;55953;51.650;-0.522;2024-03-08T10:32:01;99909.60;;;10.00
68911;BMP180;55953;51.650;-0.522;2024-03-08T10:34:30;99904.00;;;10.00
68911;BMP180;55953;51.650;-0.522;2024-03-08T10:37:04;99899.60;;;10.00
68911;BMP180;55953;51.650;-0.522;2024-03-08T10:39:36;99898.40;;;9.92
68911;BMP180;55953;51.650;-0.522;2024-03-08T10:42:12;99890.80;;;10.00
68911;BMP180;55953;51.650;-0.522;2024-03-08T10:45:10;99883.20;;;10.00
68911;BMP180;55953;51.650;-0.522;2024-03-08T10:47:49;99866.60;;;10.00
68911;BMP180;55953;51.650;-0.522;2024-03-08T10:50:20;99868.60;;;10.18
68911;BMP180;55953;51.650;-0.522;2024-03-08T10:52:51;99861.00;;;10.44
68911;BMP180;55953;51.650;-0.522;2024-03-08T10:55:19;99854.60;;;10.60
68911;BMP180;55953;51.650;-0.522;2024-03-08T10:57:50;99856.00;;;10.60
68911;BMP180;55953;51.650;-0.522;2024-03-08T11:00:19;99854.20;;;10.40
68911;BMP180;55953;51.650;-0.522;2024-03-08T11:02:54;99853.00;;;10.30
68911;BMP180;55953;51.650;-0.522;2024-03-08T11:05:39;99849.00;;;10.10
68911;BMP180;55953;51.650;-0.522;2024-03-08T11:10:53;99835.80;;;9.90
68911;BMP180;55953;51.650;-0.522;2024-03-08T11:13:41;99832.80;;;9.90
68911;BMP180;55953;51.650;-0.522;2024-03-08T11:19:24;99819.80;;;10.14
68911;BMP180;55953;51.650;-0.522;2024-03-08T11:22:02;99814.80;;;10.30
68911;BMP180;55953;51.650;-0.522;2024-03-08T11:24:39;99812.80;;;10.50
68911;BMP180;55953;51.650;-0.522;2024-03-08T11:27:09;99809.20;;;10.60
68911;BMP180;55953;51.650;-0.522;2024-03-08T11:29:38;99798.80;;;10.80
68911;BMP180;55953;51.650;-0.522;2024-03-08T11:32:15;99797.40;;;10.90
68911;BMP180;55953;51.650;-0.522;2024-03-08T11:34:49;99795.80;;;10.90
68911;BMP180;55953;51.650;-0.522;2024-03-08T11:37:20;99792.20;;;10.78
68911;BMP180;55953;51.650;-0.522;2024-03-08T11:39:54;99791.20;;;10.70
68911;BMP180;55953;51.650;-0.522;2024-03-08T11:42:26;99792.20;;;10.60
68911;BMP180;55953;51.650;-0.522;2024-03-08T11:44:55;99786.20;;;10.60
68911;BMP180;55953;51.650;-0.522;2024-03-08T11:47:23;99779.60;;;10.60
68911;BMP180;55953;51.650;-0.522;2024-03-08T11:49:50;99778.80;;;10.60
68911;BMP180;55953;51.650;-0.522;2024-03-08T11:52:20;99775.40;;;10.70
68911;BMP180;55953;51.650;-0.522;2024-03-08T11:54:53;99770.40;;;10.70
68911;BMP180;55953;51.650;-0.522;2024-03-08T11:57:27;99768.20;;;10.80
68911;BMP180;55953;51.650;-0.522;2024-03-08T11:59:56;99769.40;;;10.84
68911;BMP180;55953;51.650;-0.522;2024-03-08T12:02:46;99765.80;;;10.80
68911;BMP180;55953;51.650;-0.522;2024-03-08T12:05:19;99756.20;;;10.80
68911;BMP180;55953;51.650;-0.522;2024-03-08T12:07:57;99749.60;;;10.80
68911;BMP180;55953;51.650;-0.522;2024-03-08T12:10:26;99743.80;;;10.90
68911;BMP180;55953;51.650;-0.522;2024-03-08T12:12:58;99736.40;;;11.00
68911;BMP180;55953;51.650;-0.522;2024-03-08T12:15:32;99730.40;;;11.10
68911;BMP180;55953;51.650;-0.522;2024-03-08T12:18:01;99727.00;;;11.18
68911;BMP180;55953;51.650;-0.522;2024-03-08T12:20:32;99727.00;;;11.20
68911;BMP180;55953;51.650;-0.522;2024-03-08T12:23:02;99722.60;;;11.20
68911;BMP180;55953;51.650;-0.522;2024-03-08T12:25:32;99723.20;;;11.20
68911;BMP180;55953;51.650;-0.522;2024-03-08T12:28:13;99722.20;;;11.16
68911;BMP180;55953;51.650;-0.522;2024-03-08T12:30:51;99720.60;;;11.20
68911;BMP180;55953;51.650;-0.522;2024-03-08T12:33:20;99712.00;;;11.16
68911;BMP180;55953;51.650;-0.522;2024-03-08T12:35:55;99714.00;;;11.20
68911;BMP180;55953;51.650;-0.522;2024-03-08T12:38:27;99702.80;;;11.30
68911;BMP180;55953;51.650;-0.522;2024-03-08T12:40:59;99704.20;;;11.40
68911;BMP180;55953;51.650;-0.522;2024-03-08T12:43:27;99701.80;;;11.42
68911;BMP180;55953;51.650;-0.522;2024-03-08T12:45:59;99701.40;;;11.50
68911;BMP180;55953;51.650;-0.522;2024-03-08T12:48:28;99699.00;;;11.50
68911;BMP180;55953;51.650;-0.522;2024-03-08T12:50:55;99697.80;;;11.42
68911;BMP180;55953;51.650;-0.522;2024-03-08T12:53:23;99700.40;;;11.40
68911;BMP180;55953;51.650;-0.522;2024-03-08T12:55:53;99693.80;;;11.40
68911;BMP180;55953;51.650;-0.522;2024-03-08T12:58:24;99688.60;;;11.30
68911;BMP180;55953;51.650;-0.522;2024-03-08T13:00:54;99681.80;;;11.30
68911;BMP180;55953;51.650;-0.522;2024-03-08T13:03:22;99682.00;;;11.30
68911;BMP180;55953;51.650;-0.522;2024-03-08T13:05:51;99678.60;;;11.30
68911;BMP180;55953;51.650;-0.522;2024-03-08T13:08:19;99671.40;;;11.36
68911;BMP180;55953;51.650;-0.522;2024-03-08T13:10:49;99670.20;;;11.40
68911;BMP180;55953;51.650;-0.522;2024-03-08T13:13:18;99667.00;;;11.60
68911;BMP180;55953;51.650;-0.522;2024-03-08T13:15:47;99664.20;;;11.70
68911;BMP180;55953;51.650;-0.522;2024-03-08T13:18:16;99656.40;;;11.70
68911;BMP180;55953;51.650;-0.522;2024-03-08T13:20:45;99661.80;;;11.60
68911;BMP180;55953;51.650;-0.522;2024-03-08T13:23:18;99667.40;;;11.50
68911;BMP180;55953;51.650;-0.522;2024-03-08T13:25:46;99663.00;;;11.40
68911;BMP180;55953;51.650;-0.522;2024-03-08T13:28:17;99653.40;;;11.20
68911;BMP180;55953;51.650;-0.522;2024-03-08T13:30:50;99653.80;;;11.10
68911;BMP180;55953;51.650;-0.522;2024-03-08T13:33:25;99651.00;;;11.10
68911;BMP180;55953;51.650;-0.522;2024-03-08T13:35:53;99647.20;;;11.10
68911;BMP180;55953;51.650;-0.522;2024-03-08T13:38:21;99648.80;;;11.00
68911;BMP180;55953;51.650;-0.522;2024-03-08T13:40:49;99636.00;;;11.10
68911;BMP180;55953;51.650;-0.522;2024-03-08T13:43:17;99634.20;;;11.20
68911;BMP180;55953;51.650;-0.522;2024-03-08T13:45:45;99634.00;;;11.26
68911;BMP180;55953;51.650;-0.522;2024-03-08T13:48:13;99632.60;;;11.40
68911;BMP180;55953;51.650;-0.522;2024-03-08T13:50:41;99627.20;;;11.50
68911;BMP180;55953;51.650;-0.522;2024-03-08T13:53:10;99612.00;;;11.50
68911;BMP180;55953;51.650;-0.522;2024-03-08T13:55:38;99614.20;;;11.60
68911;BMP180;55953;51.650;-0.522;2024-03-08T13:58:06;99609.80;;;11.72
68911;BMP180;55953;51.650;-0.522;2024-03-08T14:00:37;99604.00;;;11.80
68911;BMP180;55953;51.650;-0.522;2024-03-08T14:03:06;99601.80;;;11.80
68911;BMP180;55953;51.650;-0.522;2024-03-08T14:05:34;99603.40;;;11.70
68911;BMP180;55953;51.650;-0.522;2024-03-08T14:08:03;99605.80;;;11.70
68911;BMP180;55953;51.650;-0.522;2024-03-08T14:10:31;99606.80;;;11.70
68911;BMP180;55953;51.650;-0.522;2024-03-08T14:12:59;99606.80;;;11.72
68911;BMP180;55953;51.650;-0.522;2024-03-08T14:15:28;99591.60;;;11.70